createdAt,value
2019-04-22T00:02:05.991Z,-66
2019-04-22T00:04:45.247Z,-66
2019-04-22T00:07:28.645Z,-67
2019-04-22T00:10:09.087Z,-66
2019-04-22T00:12:37.464Z,-66
2019-04-22T00:14:57.292Z,-66
2019-04-22T00:17:38.551Z,-66
2019-04-22T00:20:04.984Z,-66
2019-04-22T00:22:32.472Z,-67
2019-04-22T00:25:08.065Z,-67
2019-04-22T00:27:41.304Z,-66
2019-04-22T00:30:13.912Z,-67
2019-04-22T00:32:36.591Z,-67
2019-04-22T00:35:06.028Z,-68
2019-04-22T00:37:43.836Z,-67
2019-04-22T00:40:15.967Z,-67
2019-04-22T00:42:47.669Z,-66
2019-04-22T00:45:24.787Z,-67
2019-04-22T00:47:46.260Z,-66
2019-04-22T00:50:20.459Z,-66
2019-04-22T00:52:52.518Z,-66
2019-04-22T00:55:22.414Z,-66
2019-04-22T00:57:52.041Z,-66
2019-04-22T01:00:24.667Z,-66
2019-04-22T01:02:58.858Z,-67
2019-04-22T01:05:30.533Z,-66
2019-04-22T01:08:04.004Z,-66
2019-04-22T01:10:25.272Z,-66
2019-04-22T01:12:59.795Z,-66
2019-04-22T01:15:28.901Z,-66
2019-04-22T01:17:57.440Z,-67
2019-04-22T01:20:55.659Z,-66
2019-04-22T01:23:02.049Z,-66
2019-04-22T01:25:32.821Z,-66
2019-04-22T01:27:58.295Z,-66
2019-04-22T01:30:25.832Z,-66
2019-04-22T01:32:47.280Z,-66
2019-04-22T01:35:28.659Z,-66
2019-04-22T01:38:01.692Z,-66
2019-04-22T01:40:44.929Z,-66
2019-04-22T01:43:18.560Z,-66
2019-04-22T01:45:47.079Z,-67
2019-04-22T01:48:19.794Z,-67
2019-04-22T01:50:44.549Z,-67
2019-04-22T01:53:24.549Z,-67
2019-04-22T01:55:55.062Z,-66
2019-04-22T01:58:11.103Z,-66
2019-04-22T02:00:56.142Z,-66
2019-04-22T02:03:25.714Z,-67
2019-04-22T02:05:51.071Z,-66
2019-04-22T02:08:31.264Z,-66
2019-04-22T02:10:56.108Z,-66
2019-04-22T02:13:30.709Z,-66
2019-04-22T02:15:58.525Z,-66
2019-04-22T02:18:36.246Z,-66
2019-04-22T02:20:55.353Z,-66
2019-04-22T02:26:07.150Z,-66
2019-04-22T02:44:04.020Z,-66
2019-04-22T02:46:32.840Z,-66
2019-04-22T02:49:01.309Z,-66
2019-04-22T02:59:03.904Z,-66
2019-04-22T03:01:30.016Z,-66
2019-04-22T03:04:06.615Z,-66
2019-04-22T03:06:30.793Z,-66
2019-04-22T03:09:07.532Z,-66
2019-04-22T03:11:50.067Z,-66
2019-04-22T03:14:01.384Z,-66
2019-04-22T03:16:33.324Z,-66
2019-04-22T03:19:17.397Z,-66
2019-04-22T03:21:34.311Z,-66
2019-04-22T03:26:51.911Z,-66
2019-04-22T03:29:04.760Z,-67
2019-04-22T03:37:20.579Z,-65
2019-04-22T03:39:46.255Z,-66
2019-04-22T03:47:12.112Z,-66
2019-04-22T03:54:45.601Z,-66
2019-04-22T04:02:14.019Z,-66
2019-04-22T04:07:22.501Z,-66
2019-04-22T04:09:55.425Z,-66
2019-04-22T04:14:53.647Z,-66
2019-04-22T04:20:03.293Z,-66
2019-04-22T04:22:35.881Z,-66
2019-04-22T04:30:09.973Z,-66
2019-04-22T04:37:40.524Z,-68
2019-04-22T04:47:44.938Z,-67
2019-04-22T04:55:18.526Z,-67
2019-04-22T05:02:48.949Z,-67
2019-04-22T05:15:16.641Z,-67
2019-04-22T05:22:43.152Z,-67
2019-04-22T05:25:15.162Z,-67
2019-04-22T05:27:42.620Z,-67
2019-04-22T05:30:23.709Z,-67
2019-04-22T05:32:46.154Z,-67
2019-04-22T05:35:14.243Z,-67
2019-04-22T05:40:22.022Z,-67
2019-04-22T05:42:44.439Z,-67
2019-04-22T05:45:17.695Z,-67
2019-04-22T05:47:55.079Z,-67
2019-04-22T05:50:21.818Z,-67
2019-04-22T05:52:54.001Z,-67
2019-04-22T05:55:33.302Z,-67
2019-04-22T05:57:57.736Z,-67
2019-04-22T06:00:40.538Z,-67
2019-04-22T06:03:07.233Z,-67
2019-04-22T06:05:35.797Z,-67
2019-04-22T06:08:08.261Z,-67
2019-04-22T06:10:48.584Z,-68
2019-04-22T06:13:06.794Z,-68
2019-04-22T06:15:37.276Z,-67
2019-04-22T06:20:53.103Z,-68
2019-04-22T06:23:28.933Z,-67
2019-04-22T06:28:37.814Z,-67
2019-04-22T06:31:03.696Z,-67
2019-04-22T06:33:34.696Z,-67
2019-04-22T06:36:03.414Z,-67
2019-04-22T06:41:09.356Z,-66
2019-04-22T06:43:34.969Z,-66
2019-04-22T06:46:06.330Z,-66
2019-04-22T06:48:51.998Z,-66
2019-04-22T06:51:05.256Z,-66
2019-04-22T06:53:37.420Z,-67
2019-04-22T06:56:05.169Z,-66
2019-04-22T06:58:41.043Z,-66
2019-04-22T07:01:09.891Z,-66
2019-04-22T07:06:13.037Z,-66
2019-04-22T07:09:05.850Z,-66
2019-04-22T07:11:06.357Z,-66
2019-04-22T07:14:01.753Z,-66
2019-04-22T07:16:20.292Z,-66
2019-04-22T07:19:05.664Z,-66
2019-04-22T07:21:14.173Z,-67
2019-04-22T07:26:30.192Z,-67
2019-04-22T07:28:50.849Z,-66
2019-04-22T07:31:23.543Z,-67
2019-04-22T07:33:56.875Z,-68
2019-04-22T07:36:49.034Z,-69
2019-04-22T07:38:56.561Z,-69
2019-04-22T07:41:27.386Z,-69
2019-04-22T07:44:13.541Z,-68
2019-04-22T07:46:33.547Z,-69
2019-04-22T07:49:06.564Z,-69
2019-04-22T07:54:06.270Z,-68
2019-04-22T07:56:36.696Z,-68
2019-04-22T07:59:10.691Z,-68
2019-04-22T08:01:38.066Z,-68
2019-04-22T08:04:16.206Z,-68
2019-04-22T08:06:46.079Z,-67
2019-04-22T08:09:19.852Z,-68
2019-04-22T08:12:20.208Z,-68
2019-04-22T08:14:24.188Z,-68
2019-04-22T08:17:01.559Z,-68
2019-04-22T08:21:57.718Z,-68
2019-04-22T08:24:29.292Z,-68
2019-04-22T08:27:00.263Z,-68
2019-04-22T08:32:01.165Z,-67
2019-04-22T08:34:29.871Z,-68
2019-04-22T08:39:34.544Z,-67
2019-04-22T08:42:05.227Z,-67
2019-04-22T08:44:56.752Z,-68
2019-04-22T08:47:11.173Z,-74
2019-04-22T08:49:44.404Z,-77
2019-04-22T08:52:08.735Z,-77
2019-04-22T08:54:41.000Z,-77
2019-04-22T08:57:10.582Z,-77
2019-04-22T08:59:46.221Z,-77
2019-04-22T09:02:18.559Z,-78
2019-04-22T09:04:42.119Z,-77
2019-04-22T09:09:45.916Z,-78
2019-04-22T09:12:15.929Z,-78
2019-04-22T09:17:17.991Z,-77
2019-04-22T09:19:47.905Z,-77
2019-04-22T09:22:17.526Z,-77
2019-04-22T09:24:46.943Z,-78
2019-04-22T09:27:27.928Z,-78
2019-04-22T09:29:51.413Z,-78
2019-04-22T09:32:38.291Z,-77
2019-04-22T09:34:51.321Z,-77
2019-04-22T09:37:29.009Z,-77
2019-04-22T09:39:59.902Z,-78
2019-04-22T09:42:25.928Z,-77
2019-04-22T09:44:53.787Z,-77
2019-04-22T09:52:29.419Z,-77
2019-04-22T09:55:08.248Z,-77
2019-04-22T09:57:47.845Z,-77
2019-04-22T10:00:04.327Z,-77
2019-04-22T10:02:40.826Z,-77
2019-04-22T10:05:07.567Z,-77
2019-04-22T10:07:32.457Z,-77
2019-04-22T10:10:08.950Z,-77
2019-04-22T10:12:36.981Z,-78
2019-04-22T10:15:23.307Z,-77
2019-04-22T10:17:37.333Z,-77
2019-04-22T10:22:46.030Z,-78
2019-04-22T10:25:11.894Z,-77
2019-04-22T10:27:46.274Z,-77
2019-04-22T10:30:10.015Z,-77
2019-04-22T10:32:42.071Z,-77
2019-04-22T10:35:12.956Z,-77
2019-04-22T10:37:38.837Z,-78
2019-04-22T10:40:13.446Z,-77
2019-04-22T10:42:43.374Z,-77
2019-04-22T10:45:14.330Z,-77
2019-04-22T10:47:43.886Z,-77
2019-04-22T10:50:16.186Z,-77
2019-04-22T10:52:45.856Z,-77
2019-04-22T10:55:15.126Z,-77
2019-04-22T10:57:44.506Z,-78
2019-04-22T11:00:13.757Z,-77
2019-04-22T11:02:43.810Z,-77
2019-04-22T11:05:14.350Z,-77
2019-04-22T11:07:51.696Z,-77
2019-04-22T11:10:35.320Z,-77
2019-04-22T11:12:51.758Z,-77
2019-04-22T11:15:22.261Z,-77
2019-04-22T11:17:55.535Z,-77
2019-04-22T11:20:26.025Z,-77
2019-04-22T11:22:56.352Z,-77
2019-04-22T11:25:25.794Z,-77
2019-04-22T11:27:55.820Z,-77
2019-04-22T11:30:28.224Z,-79
2019-04-22T11:32:58.522Z,-77
2019-04-22T11:35:27.979Z,-77
2019-04-22T11:37:58.955Z,-77
2019-04-22T11:40:37.141Z,-78
2019-04-22T11:42:59.960Z,-77
2019-04-22T11:45:31.122Z,-77
2019-04-22T11:48:01.468Z,-77
2019-04-22T11:50:30.889Z,-77
2019-04-22T11:53:00.798Z,-77
2019-04-22T11:55:30.949Z,-77
2019-04-22T11:58:01.140Z,-78
2019-04-22T12:00:35.171Z,-78
2019-04-22T12:03:05.177Z,-77
2019-04-22T12:05:34.403Z,-77
2019-04-22T12:08:04.839Z,-77
2019-04-22T12:10:41.174Z,-76
2019-04-22T12:13:06.189Z,-77
2019-04-22T12:15:37.134Z,-78
2019-04-22T12:18:09.047Z,-75
2019-04-22T12:20:39.209Z,-78
2019-04-22T12:23:09.445Z,-75
2019-04-22T12:25:46.444Z,-75
2019-04-22T12:28:10.934Z,-77
2019-04-22T12:30:41.629Z,-76
2019-04-22T12:33:14.524Z,-76
2019-04-22T12:35:42.323Z,-78
2019-04-22T12:38:13.160Z,-76
2019-04-22T12:40:49.607Z,-78
2019-04-22T12:43:16.075Z,-76
2019-04-22T12:45:44.753Z,-77
2019-04-22T12:48:15.051Z,-75
2019-04-22T12:50:46.481Z,-77
2019-04-22T12:53:18.778Z,-78
2019-04-22T12:55:46.120Z,-77
2019-04-22T12:58:15.791Z,-78
2019-04-22T13:00:45.008Z,-77
2019-04-22T13:03:14.156Z,-77
2019-04-22T13:05:45.062Z,-78
2019-04-22T13:08:15.713Z,-78
2019-04-22T13:10:53.695Z,-74
2019-04-22T13:13:16.457Z,-78
2019-04-22T13:15:46.790Z,-75
2019-04-22T13:18:26.167Z,-76
2019-04-22T13:20:48.477Z,-78
2019-04-22T13:23:18.227Z,-77
2019-04-22T13:25:49.064Z,-76
2019-04-22T13:28:19.051Z,-77
2019-04-22T13:30:52.725Z,-78
2019-04-22T13:33:21.005Z,-78
2019-04-22T13:35:52.083Z,-78
2019-04-22T13:38:21.374Z,-78
2019-04-22T13:41:10.876Z,-78
2019-04-22T13:43:23.237Z,-78
2019-04-22T13:45:52.351Z,-75
2019-04-22T13:48:38.422Z,-77
2019-04-22T13:51:36.430Z,-78
2019-04-22T13:54:18.938Z,-78
2019-04-22T13:56:15.463Z,-78
2019-04-22T13:58:43.149Z,-78
2019-04-22T14:00:58.556Z,-78
2019-04-22T14:03:42.769Z,-78
2019-04-22T14:06:13.117Z,-76
2019-04-22T14:08:43.096Z,-79
2019-04-22T14:11:21.608Z,-75
2019-04-22T14:13:43.830Z,-79
2019-04-22T14:16:13.396Z,-79
2019-04-22T14:18:44.596Z,-76
2019-04-22T14:21:14.946Z,-77
2019-04-22T14:23:44.746Z,-78
2019-04-22T14:26:15.391Z,-78
2019-04-22T14:28:45.960Z,-79
2019-04-22T14:31:15.097Z,-77
2019-04-22T14:33:46.596Z,-78
2019-04-22T14:36:15.284Z,-78
2019-04-22T14:38:45.684Z,-77
2019-04-22T14:41:32.731Z,-77
2019-04-22T14:44:46.872Z,-76
2019-04-22T14:46:43.588Z,-78
2019-04-22T14:49:10.465Z,-77
2019-04-22T14:51:39.248Z,-78
2019-04-22T14:54:05.087Z,-68
2019-04-22T14:56:22.431Z,-68
2019-04-22T14:58:53.032Z,-68
2019-04-22T15:01:24.538Z,-70
2019-04-22T15:03:54.517Z,-70
2019-04-22T15:06:24.305Z,-69
2019-04-22T15:08:57.969Z,-68
2019-04-22T15:11:26.826Z,-70
2019-04-22T15:13:57.011Z,-69
2019-04-22T15:16:27.959Z,-69
2019-04-22T15:19:07.646Z,-68
2019-04-22T15:21:38.384Z,-69
2019-04-22T15:24:27.557Z,-69
2019-04-22T15:26:58.837Z,-69
2019-04-22T15:29:29.650Z,-68
2019-04-22T15:31:59.939Z,-69
2019-04-22T15:34:30.602Z,-70
2019-04-22T15:37:00.163Z,-67
2019-04-22T15:39:29.646Z,-69
2019-04-22T15:42:09.278Z,-67
2019-04-22T15:44:30.447Z,-67
2019-04-22T15:47:00.947Z,-67
2019-04-22T15:49:31.905Z,-68
2019-04-22T15:52:03.008Z,-67
2019-04-22T15:54:33.865Z,-68
2019-04-22T15:57:04.539Z,-68
2019-04-22T15:59:52.200Z,-67
2019-04-22T16:02:06.603Z,-70
2019-04-22T16:04:36.698Z,-68
2019-04-22T16:07:07.181Z,-68
2019-04-22T16:09:37.075Z,-67
2019-04-22T16:12:16.927Z,-68
2019-04-22T16:14:43.852Z,-68
2019-04-22T16:17:08.716Z,-69
2019-04-22T16:19:39.078Z,-67
2019-04-22T16:22:13.399Z,-67
2019-04-22T16:24:58.190Z,-67
2019-04-22T16:27:30.197Z,-67
2019-04-22T16:29:59.463Z,-68
2019-04-22T16:32:29.872Z,-68
2019-04-22T16:34:59.160Z,-68
2019-04-22T16:37:28.583Z,-68
2019-04-22T16:39:58.915Z,-68
2019-04-22T16:42:38.098Z,-68
2019-04-22T16:44:59.645Z,-67
2019-04-22T16:47:31.175Z,-68
2019-04-22T16:50:01.763Z,-68
2019-04-22T16:52:32.210Z,-68
2019-04-22T16:55:01.476Z,-67
2019-04-22T16:57:30.879Z,-67
2019-04-22T17:00:00.539Z,-68
2019-04-22T17:02:50.648Z,-68
2019-04-22T17:05:25.469Z,-67
2019-04-22T17:07:56.272Z,-69
2019-04-22T17:10:26.143Z,-68
2019-04-22T17:13:01.996Z,-67
2019-04-22T17:15:27.074Z,-67
2019-04-22T17:17:57.147Z,-66
2019-04-22T17:20:27.140Z,-67
2019-04-22T17:22:57.655Z,-67
2019-04-22T17:25:27.308Z,-68
2019-04-22T17:27:57.427Z,-67
2019-04-22T17:30:27.273Z,-67
2019-04-22T17:32:56.749Z,-67
2019-04-22T17:35:26.332Z,-69
2019-04-22T17:38:06.564Z,-67
2019-04-22T17:40:45.002Z,-67
2019-04-22T17:43:30.053Z,-67
2019-04-22T17:46:07.302Z,-67
2019-04-22T17:48:40.706Z,-67
2019-04-22T17:51:24.053Z,-68
2019-04-22T17:53:53.277Z,-68
2019-04-22T17:56:24.900Z,-69
2019-04-22T17:58:51.301Z,-67
2019-04-22T18:01:25.477Z,-68
2019-04-22T18:03:40.751Z,-67
2019-04-22T18:06:09.339Z,-67
2019-04-22T18:08:50.694Z,-68
2019-04-22T18:11:33.559Z,-67
2019-04-22T18:14:00.312Z,-68
2019-04-22T18:16:30.556Z,-67
2019-04-22T18:18:59.963Z,-67
2019-04-22T18:21:25.622Z,-67
2019-04-22T18:23:52.822Z,-67
2019-04-22T18:26:27.652Z,-67
2019-04-22T18:29:00.624Z,-67
2019-04-22T18:31:28.366Z,-66
2019-04-22T18:34:01.951Z,-68
2019-04-22T18:36:34.558Z,-67
2019-04-22T18:39:10.087Z,-68
2019-04-22T18:41:34.230Z,-67
2019-04-22T18:44:10.031Z,-66
2019-04-22T18:46:36.945Z,-67
2019-04-22T18:49:08.356Z,-67
2019-04-22T18:51:57.560Z,-66
2019-04-22T18:54:30.897Z,-67
2019-04-22T18:57:07.137Z,-66
2019-04-22T18:59:20.257Z,-67
2019-04-22T19:01:44.240Z,-67
2019-04-22T19:04:20.042Z,-66
2019-04-22T19:07:07.432Z,-66
2019-04-22T19:09:41.404Z,-68
2019-04-22T19:12:28.513Z,-67
2019-04-22T19:14:45.532Z,-66
2019-04-22T19:17:20.331Z,-67
2019-04-22T19:20:02.454Z,-66
2019-04-22T19:22:09.656Z,-68
2019-04-22T19:24:39.771Z,-69
2019-04-22T19:27:09.571Z,-67
2019-04-22T19:29:44.783Z,-67
2019-04-22T19:32:14.770Z,-67
2019-04-22T19:34:42.779Z,-68
2019-04-22T19:37:13.209Z,-67
2019-04-22T19:39:52.591Z,-66
2019-04-22T19:42:28.212Z,-67
2019-04-22T19:44:50.877Z,-66
2019-04-22T19:47:33.356Z,-66
2019-04-22T19:50:05.948Z,-66
2019-04-22T19:52:29.249Z,-68
2019-04-22T19:55:03.439Z,-67
2019-04-22T19:57:26.497Z,-66
2019-04-22T20:00:00.443Z,-67
2019-04-22T20:02:51.439Z,-66
2019-04-22T20:05:46.032Z,-69
2019-04-22T20:08:14.459Z,-67
2019-04-22T20:10:44.419Z,-67
2019-04-22T20:13:18.753Z,-67
2019-04-22T20:15:37.073Z,-67
2019-04-22T20:18:27.034Z,-66
2019-04-22T20:20:51.232Z,-67
2019-04-22T20:23:14.245Z,-67
2019-04-22T20:25:46.003Z,-68
2019-04-22T20:28:21.058Z,-69
2019-04-22T20:30:50.595Z,-67
2019-04-22T20:33:26.011Z,-67
2019-04-22T20:35:57.015Z,-67
2019-04-22T20:38:24.853Z,-67
2019-04-22T20:40:55.681Z,-67
2019-04-22T20:43:38.608Z,-66
2019-04-22T20:45:57.721Z,-67
2019-04-22T20:48:28.551Z,-68
2019-04-22T20:51:00.424Z,-69
2019-04-22T20:53:37.940Z,-67
2019-04-22T20:56:04.270Z,-67
2019-04-22T20:58:34.143Z,-67
2019-04-22T21:00:55.568Z,-66
2019-04-22T21:03:26.672Z,-66
2019-04-22T21:06:04.288Z,-66
2019-04-22T21:08:44.783Z,-66
2019-04-22T21:13:31.754Z,-74
2019-04-22T21:16:20.475Z,-75
2019-04-22T21:18:36.377Z,-71
2019-04-22T21:21:13.585Z,-75
2019-04-22T21:23:34.992Z,-73
2019-04-22T21:26:13.765Z,-74
2019-04-22T21:28:45.940Z,-74
2019-04-22T21:31:19.255Z,-73
2019-04-22T21:33:48.980Z,-73
2019-04-22T21:36:28.437Z,-73
2019-04-22T21:38:51.343Z,-74
2019-04-22T21:41:20.459Z,-74
2019-04-22T21:43:52.689Z,-73
2019-04-22T21:46:24.387Z,-73
2019-04-22T21:48:53.122Z,-73
2019-04-22T21:51:34.527Z,-74
2019-04-22T21:54:06.904Z,-74
2019-04-22T21:56:41.792Z,-74
2019-04-22T21:59:05.287Z,-75
2019-04-22T22:01:42.669Z,-74
2019-04-22T22:04:09.710Z,-74
2019-04-22T22:06:28.984Z,-74
2019-04-22T22:09:13.562Z,-75
2019-04-22T22:11:38.730Z,-74
2019-04-22T22:14:11.730Z,-75
2019-04-22T22:16:34.825Z,-75
2019-04-22T22:19:11.489Z,-74
2019-04-22T22:21:54.145Z,-74
2019-04-22T22:24:18.517Z,-74
2019-04-22T22:26:52.061Z,-73
2019-04-22T22:29:31.417Z,-74
2019-04-22T22:31:52.875Z,-74
2019-04-22T22:34:24.844Z,-74
2019-04-22T22:36:47.825Z,-74
2019-04-22T22:39:17.440Z,-73
2019-04-22T22:41:34.038Z,-74
2019-04-22T22:44:14.119Z,-74
2019-04-22T22:46:51.595Z,-74
2019-04-22T22:49:28.302Z,-74
2019-04-22T22:52:11.970Z,-74
2019-04-22T22:54:30.134Z,-74
2019-04-22T22:57:04.641Z,-74
2019-04-22T22:59:35.727Z,-74
2019-04-22T23:02:03.216Z,-74
2019-04-22T23:04:44.199Z,-74
2019-04-22T23:07:11.531Z,-74
2019-04-22T23:09:36.520Z,-74
2019-04-22T23:12:13.322Z,-73
2019-04-22T23:14:40.429Z,-74
2019-04-22T23:16:55.609Z,-74
2019-04-22T23:19:19.906Z,-73
2019-04-22T23:21:52.617Z,-73
2019-04-22T23:24:50.255Z,-75
2019-04-22T23:27:32.727Z,-73
2019-04-22T23:29:56.765Z,-74
2019-04-22T23:32:31.902Z,-73
2019-04-22T23:35:08.269Z,-73
2019-04-22T23:37:39.322Z,-73
2019-04-22T23:40:24.460Z,-73
2019-04-22T23:42:46.860Z,-73
2019-04-22T23:45:15.473Z,-73
2019-04-22T23:47:39.037Z,-73
2019-04-22T23:50:24.437Z,-73
2019-04-22T23:52:54.393Z,-73
2019-04-22T23:55:20.625Z,-73
2019-04-22T23:57:56.971Z,-73
